Archival Weather

NSFA McMurdo Sound

NSFA McMurdo Sound, Antarctica (NZCM)

Report from: Saturday, February 24, 2024 8:55 AM UTC
Current time: Monday, June 24, 2024 9:28 AM UTC

Current weather – Weather history – Daily summaries
Weather forecast

Temperature-17.5°C (0.5°F)
Wind chill-28.2°C (-18.7°F)
Dew point-30.3°C (-22.5°F)
Winds 13 kts (6.7 m/s, 15 mph) East (80°)
Visibility6.2 mi. (10 km)
Clouds Sky clear
Altimeter29.19 in.Hg (988 mB)
Relative humidity32 %
Density altitude-6,680 ft. (-2,036 m)
Sea-level pressure108.9 kPa (1089 mB, 32.16 in.Hg)
Remarks Fully automated report
Automated weather observing station with precipitation discriminator
Pressure falling more slowly
Flight conditions Visual Meteorological Conditions
Raw dataNZCM 240855Z AUTO 08013KT 9999 CLR M18/M30 A2919 RMK AO2 SLP891 T11751303 56008
An error has occurred. This application may no longer respond until reloaded. Reload 🗙